Time;durP1;ratioP1;P1;durP2;ratioP2;P2;SDS_P1;SDS_P2;PMS_P1;PMS_P2;Temp;Humidity;BMP_temperature;BMP_pressure;BME280_temperature;BME280_humidity;BME280_pressure;Samples;Min_cycle;Max_cycle;Signal;HPM_P1;HPM_P2
2023/12/12 00:01:00;;;;;;;7.73;2.87;;;12.30;92.20;;;;;;969598;146;27311;-81
2023/12/12 00:03:26;;;;;;;13.27;3.50;;;12.30;92.30;;;;;;969841;147;27270;-81
2023/12/12 00:05:53;;;;;;;12.63;3.65;;;12.30;92.30;;;;;;970148;148;27325;-81
2023/12/12 00:08:19;;;;;;;9.73;3.05;;;12.30;92.40;;;;;;969120;148;27337;-81
2023/12/12 00:10:46;;;;;;;8.57;3.10;;;12.30;92.40;;;;;;968851;145;27333;-81
2023/12/12 00:13:13;;;;;;;13.93;3.40;;;12.20;92.40;;;;;;970211;147;27274;-81
2023/12/12 00:15:39;;;;;;;8.33;2.83;;;12.20;92.40;;;;;;969897;146;27369;-81
2023/12/12 00:18:06;;;;;;;10.83;4.13;;;12.20;92.40;;;;;;970242;146;27452;-81
2023/12/12 00:20:32;;;;;;;7.93;2.90;;;12.20;92.30;;;;;;970032;146;27360;-81
2023/12/12 00:22:59;;;;;;;11.30;2.87;;;12.10;92.10;;;;;;970104;144;27436;-81
2023/12/12 00:25:25;;;;;;;9.40;3.13;;;12.10;92.20;;;;;;970058;148;27306;-81
2023/12/12 00:27:52;;;;;;;11.80;3.62;;;12.00;92.10;;;;;;970098;147;27346;-81
2023/12/12 00:30:19;;;;;;;6.93;2.50;;;11.90;92.20;;;;;;970020;148;27310;-81
2023/12/12 00:32:45;;;;;;;5.97;2.80;;;11.90;92.20;;;;;;969610;148;27270;-81
2023/12/12 00:35:12;;;;;;;7.40;3.40;;;11.80;92.20;;;;;;970182;146;27275;-81
2023/12/12 00:37:38;;;;;;;11.27;3.10;;;11.70;92.20;;;;;;969680;146;27324;-81
2023/12/12 00:40:05;;;;;;;11.50;2.97;;;11.60;92.40;;;;;;970086;147;27784;-81
2023/12/12 00:42:32;;;;;;;13.90;3.50;;;11.50;92.60;;;;;;970035;147;27270;-81
2023/12/12 00:44:58;;;;;;;7.37;2.93;;;11.50;92.90;;;;;;969391;147;27404;-81
2023/12/12 00:47:25;;;;;;;11.90;2.93;;;11.40;93.20;;;;;;969204;148;27373;-81
2023/12/12 00:49:52;;;;;;;8.10;2.60;;;11.30;93.60;;;;;;970155;147;27724;-81
2023/12/12 00:52:18;;;;;;;6.47;2.73;;;11.30;93.80;;;;;;970404;146;27426;-81
2023/12/12 00:54:45;;;;;;;9.00;3.30;;;11.20;94.00;;;;;;969310;147;27752;-81
2023/12/12 00:57:11;;;;;;;11.20;3.47;;;11.20;94.30;;;;;;968781;148;27383;-81
2023/12/12 00:59:38;;;;;;;9.47;3.37;;;11.10;94.30;;;;;;970218;147;28269;-81
2023/12/12 01:02:04;;;;;;;7.13;2.73;;;11.10;94.50;;;;;;970048;147;27322;-81
2023/12/12 01:04:34;;;;;;;6.50;2.50;;;11.00;94.50;;;;;;969897;148;27310;-81
2023/12/12 01:07:01;;;;;;;8.73;3.60;;;11.00;94.60;;;;;;969214;148;27293;-81
2023/12/12 01:09:28;;;;;;;9.47;2.97;;;10.90;94.70;;;;;;970369;148;27930;-81
2023/12/12 01:11:54;;;;;;;10.30;3.27;;;10.90;94.80;;;;;;969748;147;27478;-81
2023/12/12 01:14:20;;;;;;;13.57;3.83;;;10.80;94.90;;;;;;970023;147;27298;-81
2023/12/12 01:16:47;;;;;;;9.13;3.23;;;10.70;95.10;;;;;;970194;147;27348;-81
2023/12/12 01:19:14;;;;;;;11.07;3.80;;;10.70;95.40;;;;;;970551;144;27348;-81
2023/12/12 01:21:40;;;;;;;8.53;2.50;;;10.60;95.50;;;;;;970388;147;27415;-81
2023/12/12 01:24:07;;;;;;;11.80;2.60;;;10.60;95.70;;;;;;970204;147;27318;-81
2023/12/12 01:26:33;;;;;;;7.53;3.07;;;10.50;95.90;;;;;;970208;147;27283;-81
2023/12/12 01:29:00;;;;;;;11.50;4.03;;;10.50;96.20;;;;;;969344;148;27309;-81
2023/12/12 01:31:27;;;;;;;12.57;3.53;;;10.40;96.40;;;;;;969930;147;27282;-82
2023/12/12 01:33:53;;;;;;;9.67;3.60;;;10.40;96.70;;;;;;969915;147;27410;-84
2023/12/12 01:36:20;;;;;;;8.03;2.90;;;10.30;96.90;;;;;;969854;147;27395;-85
2023/12/12 01:38:46;;;;;;;10.27;3.20;;;10.30;97.10;;;;;;969747;147;27266;-85
2023/12/12 01:41:13;;;;;;;9.27;3.30;;;10.30;97.20;;;;;;954555;148;27424;-83
2023/12/12 01:43:39;;;;;;;11.37;3.23;;;10.20;97.50;;;;;;943440;146;27376;-84
2023/12/12 01:46:06;;;;;;;9.30;3.00;;;10.20;97.70;;;;;;951696;146;27765;-85
2023/12/12 01:48:33;;;;;;;9.13;3.43;;;10.20;97.90;;;;;;952813;147;27313;-84
2023/12/12 01:51:02;;;;;;;9.30;3.33;;;10.10;98.00;;;;;;941768;147;27294;-81
2023/12/12 01:53:29;;;;;;;8.67;3.30;;;10.10;98.20;;;;;;952187;146;27287;-83
2023/12/12 01:55:55;;;;;;;13.47;3.93;;;10.10;98.40;;;;;;946602;147;27423;-84
2023/12/12 01:58:22;;;;;;;8.53;2.80;;;10.10;98.50;;;;;;955040;147;27348;-83
2023/12/12 02:00:48;;;;;;;9.67;3.13;;;10.00;98.60;;;;;;953267;145;27399;-84
2023/12/12 02:03:15;;;;;;;11.10;3.40;;;10.00;98.80;;;;;;950374;148;27409;-83
2023/12/12 02:05:41;;;;;;;6.80;2.43;;;10.00;99.00;;;;;;952804;148;27273;-82
2023/12/12 02:08:08;;;;;;;9.50;2.60;;;10.00;99.30;;;;;;951699;148;27872;-84
2023/12/12 02:10:35;;;;;;;6.63;3.17;;;10.00;99.60;;;;;;950942;146;27293;-84
2023/12/12 02:13:01;;;;;;;9.87;2.80;;;10.00;99.90;;;;;;952376;146;27383;-84
2023/12/12 02:15:28;;;;;;;6.57;2.70;;;10.00;99.90;;;;;;955520;146;27295;-83
2023/12/12 02:17:54;;;;;;;8.03;3.03;;;10.10;99.90;;;;;;958332;146;27784;-84
2023/12/12 02:20:21;;;;;;;7.40;2.73;;;10.10;99.90;;;;;;958043;146;27322;-84
2023/12/12 02:22:48;;;;;;;7.67;2.97;;;10.20;99.90;;;;;;951860;147;27306;-84
2023/12/12 02:25:14;;;;;;;11.10;3.00;;;10.30;99.90;;;;;;951226;148;27412;-84
2023/12/12 02:27:41;;;;;;;7.17;3.10;;;10.40;99.90;;;;;;949721;147;27401;-82
2023/12/12 02:30:07;;;;;;;10.60;3.57;;;10.40;99.90;;;;;;950941;148;27344;-84
2023/12/12 02:32:34;;;;;;;13.37;3.37;;;10.50;99.90;;;;;;951457;146;27361;-84
2023/12/12 02:35:01;;;;;;;9.57;2.80;;;10.50;99.90;;;;;;953082;146;27276;-84
2023/12/12 02:37:27;;;;;;;10.57;2.97;;;10.60;99.90;;;;;;951062;146;27275;-83
2023/12/12 02:39:54;;;;;;;11.27;3.57;;;10.70;99.90;;;;;;953284;146;27356;-82
2023/12/12 02:42:20;;;;;;;8.87;3.10;;;10.80;99.90;;;;;;967877;146;27759;-79
2023/12/12 02:44:47;;;;;;;7.70;3.27;;;10.80;99.90;;;;;;968968;146;27936;-79
2023/12/12 02:47:13;;;;;;;11.23;3.90;;;10.90;99.90;;;;;;970270;147;27287;-79
2023/12/12 02:49:40;;;;;;;8.40;2.57;;;10.90;99.90;;;;;;969638;147;27394;-79
2023/12/12 02:52:07;;;;;;;9.70;2.90;;;11.00;99.90;;;;;;969870;148;27414;-79
2023/12/12 02:54:33;;;;;;;6.77;2.73;;;11.00;99.90;;;;;;968637;146;27266;-79
2023/12/12 02:57:00;;;;;;;8.77;2.83;;;11.10;99.90;;;;;;969677;147;27267;-79
2023/12/12 02:59:26;;;;;;;10.33;3.30;;;11.10;99.90;;;;;;970359;148;27612;-79
2023/12/12 03:01:53;;;;;;;10.50;2.97;;;11.10;99.90;;;;;;969117;147;27347;-82
2023/12/12 03:04:20;;;;;;;7.20;3.00;;;11.20;99.90;;;;;;970086;146;27329;-84
2023/12/12 03:06:46;;;;;;;8.30;3.50;;;11.20;99.90;;;;;;970020;148;27271;-83
2023/12/12 03:09:13;;;;;;;10.27;2.77;;;11.20;99.90;;;;;;970132;148;27279;-84
2023/12/12 03:11:39;;;;;;;10.23;3.23;;;11.30;99.90;;;;;;969755;145;27351;-83
2023/12/12 03:14:06;;;;;;;9.00;3.40;;;11.30;99.90;;;;;;969114;146;27415;-84
2023/12/12 03:16:33;;;;;;;7.60;2.60;;;11.30;99.90;;;;;;969637;147;27255;-84
2023/12/12 03:18:59;;;;;;;8.67;2.70;;;11.30;99.90;;;;;;969803;148;27418;-84
2023/12/12 03:21:26;;;;;;;10.80;3.13;;;11.40;99.90;;;;;;969926;147;27355;-84
2023/12/12 03:23:52;;;;;;;10.70;2.70;;;11.40;99.80;;;;;;969973;147;27322;-82
2023/12/12 03:26:19;;;;;;;7.73;2.60;;;11.40;99.80;;;;;;969019;148;27318;-84
2023/12/12 03:28:45;;;;;;;7.77;3.03;;;11.40;99.80;;;;;;970037;147;27275;-84
2023/12/12 03:31:12;;;;;;;5.72;3.02;;;11.50;99.80;;;;;;970310;148;27267;-83
2023/12/12 03:33:39;;;;;;;9.30;3.33;;;11.50;99.70;;;;;;969845;148;27235;-84
2023/12/12 03:36:08;;;;;;;9.40;2.93;;;11.50;99.40;;;;;;969801;146;27418;-84
2023/12/12 03:38:35;;;;;;;6.87;3.30;;;11.50;99.80;;;;;;969892;148;27906;-83
2023/12/12 03:41:02;;;;;;;6.13;2.57;;;11.50;99.70;;;;;;970739;147;27270;-84
2023/12/12 03:43:28;;;;;;;11.17;3.60;;;11.50;99.50;;;;;;969965;147;27384;-83
2023/12/12 03:45:55;;;;;;;7.93;2.53;;;11.50;99.30;;;;;;970351;147;27274;-82
2023/12/12 03:48:21;;;;;;;8.33;3.27;;;11.50;99.20;;;;;;970360;147;27325;-84
2023/12/12 03:50:49;;;;;;;7.83;2.90;;;11.60;99.10;;;;;;969269;148;27271;-84
2023/12/12 03:53:14;;;;;;;9.70;3.13;;;11.50;99.00;;;;;;969766;147;27262;-78
2023/12/12 03:55:41;;;;;;;9.13;2.93;;;11.50;99.10;;;;;;970267;147;27254;-79
2023/12/12 03:58:08;;;;;;;11.23;3.77;;;11.50;99.10;;;;;;969613;148;27844;-80
2023/12/12 04:00:34;;;;;;;11.97;3.50;;;11.50;99.20;;;;;;969536;147;27321;-79
2023/12/12 04:03:01;;;;;;;7.47;2.50;;;11.50;99.20;;;;;;969632;148;27302;-79
2023/12/12 04:05:27;;;;;;;6.60;2.77;;;11.50;99.30;;;;;;969758;147;27342;-79
2023/12/12 04:07:54;;;;;;;10.33;3.23;;;11.50;99.30;;;;;;969017;147;27297;-80
2023/12/12 04:10:21;;;;;;;8.00;3.20;;;11.50;99.20;;;;;;969742;147;27402;-79
2023/12/12 04:12:48;;;;;;;10.93;3.13;;;11.50;99.10;;;;;;969920;147;28198;-79
2023/12/12 04:15:14;;;;;;;8.10;2.37;;;11.50;98.90;;;;;;969902;148;27318;-78
2023/12/12 04:17:41;;;;;;;7.97;2.93;;;11.50;98.80;;;;;;970533;147;27247;-79
2023/12/12 04:20:07;;;;;;;7.97;2.73;;;11.50;98.70;;;;;;970050;148;27430;-80
2023/12/12 04:22:34;;;;;;;9.70;3.00;;;11.40;98.60;;;;;;969892;145;27755;-79
2023/12/12 04:25:00;;;;;;;10.83;3.33;;;11.40;98.60;;;;;;969358;146;27377;-79
2023/12/12 04:27:27;;;;;;;6.73;2.60;;;11.30;98.60;;;;;;969837;147;27372;-79
2023/12/12 04:29:53;;;;;;;8.13;2.87;;;11.30;98.70;;;;;;970002;148;27275;-79
2023/12/12 04:32:20;;;;;;;7.53;3.00;;;11.30;98.80;;;;;;970030;148;27433;-79
2023/12/12 04:34:47;;;;;;;12.10;3.13;;;11.20;98.90;;;;;;970813;147;27699;-79
2023/12/12 04:37:13;;;;;;;10.20;2.90;;;11.20;99.00;;;;;;969548;148;27376;-79
2023/12/12 04:39:40;;;;;;;10.60;3.07;;;11.20;99.20;;;;;;970132;147;27305;-80
2023/12/12 04:42:06;;;;;;;8.87;2.87;;;11.20;99.30;;;;;;969807;146;27314;-80
2023/12/12 04:44:33;;;;;;;8.10;2.73;;;11.20;99.60;;;;;;969985;146;27406;-79
2023/12/12 04:47:00;;;;;;;6.87;2.53;;;11.10;99.60;;;;;;969481;146;27869;-79
2023/12/12 04:49:26;;;;;;;10.03;3.07;;;11.10;99.70;;;;;;969112;146;27261;-79
2023/12/12 04:51:53;;;;;;;9.47;3.27;;;11.10;99.70;;;;;;970239;146;27371;-80
2023/12/12 04:54:19;;;;;;;9.93;3.07;;;11.10;99.60;;;;;;969525;147;27347;-79
2023/12/12 04:56:46;;;;;;;12.13;2.93;;;11.10;99.60;;;;;;969728;148;27227;-79
2023/12/12 04:59:13;;;;;;;8.67;2.70;;;11.10;99.50;;;;;;969280;147;27270;-79
2023/12/12 05:01:39;;;;;;;10.10;3.03;;;11.00;99.40;;;;;;969308;147;27324;-79
2023/12/12 05:04:07;;;;;;;7.57;2.80;;;11.00;99.30;;;;;;970221;148;27434;-82
2023/12/12 05:06:32;;;;;;;8.30;2.93;;;11.00;99.40;;;;;;969630;146;27715;-83
2023/12/12 05:08:59;;;;;;;7.97;2.70;;;10.90;99.50;;;;;;970002;147;27298;-83
2023/12/12 05:11:25;;;;;;;11.97;3.53;;;10.90;99.70;;;;;;969500;146;27259;-83
2023/12/12 05:13:52;;;;;;;7.63;2.73;;;10.90;99.70;;;;;;969578;146;27761;-82
2023/12/12 05:16:19;;;;;;;11.07;3.20;;;10.80;99.80;;;;;;969201;144;27310;-83
2023/12/12 05:18:45;;;;;;;8.67;2.87;;;10.80;99.90;;;;;;969587;146;27274;-84
2023/12/12 05:21:12;;;;;;;7.80;2.80;;;10.70;99.90;;;;;;970151;144;27913;-82
2023/12/12 05:23:38;;;;;;;9.30;3.13;;;10.70;99.90;;;;;;969758;147;27449;-82
2023/12/12 05:26:05;;;;;;;10.10;3.10;;;10.70;99.90;;;;;;969808;146;27329;-82
2023/12/12 05:28:32;;;;;;;9.27;3.17;;;10.70;99.90;;;;;;970162;147;27308;-82
2023/12/12 05:30:58;;;;;;;9.20;3.20;;;10.70;99.90;;;;;;970023;146;27235;-82
2023/12/12 05:33:25;;;;;;;14.37;3.93;;;10.70;99.90;;;;;;969615;147;27405;-82
2023/12/12 05:35:51;;;;;;;7.97;2.93;;;10.60;99.90;;;;;;969694;148;27322;-82
2023/12/12 05:38:18;;;;;;;10.27;3.10;;;10.60;99.90;;;;;;969915;148;27258;-82
2023/12/12 05:40:45;;;;;;;7.00;3.17;;;10.60;99.90;;;;;;970249;148;27351;-82
2023/12/12 05:43:11;;;;;;;8.73;3.60;;;10.60;99.90;;;;;;968273;147;27364;-82
2023/12/12 05:45:38;;;;;;;10.20;3.70;;;10.60;99.90;;;;;;967408;148;27334;-82
2023/12/12 05:48:04;;;;;;;11.70;4.60;;;10.50;99.90;;;;;;966789;148;27326;-82
2023/12/12 05:50:31;;;;;;;14.33;4.37;;;10.50;99.90;;;;;;966830;147;27344;-82
2023/12/12 05:52:57;;;;;;;16.17;5.67;;;10.50;99.90;;;;;;966434;147;27646;-82
2023/12/12 05:55:24;;;;;;;9.70;5.27;;;10.50;99.90;;;;;;967232;147;27330;-82
2023/12/12 05:57:51;;;;;;;14.60;5.03;;;10.50;99.90;;;;;;966644;148;27313;-82
2023/12/12 06:00:17;;;;;;;9.33;4.27;;;10.50;99.90;;;;;;966277;148;27371;-82
2023/12/12 06:02:44;;;;;;;10.07;4.80;;;10.50;99.90;;;;;;966646;148;27275;-82
2023/12/12 06:05:10;;;;;;;9.80;4.80;;;10.50;99.90;;;;;;967181;148;27261;-82
2023/12/12 06:07:37;;;;;;;13.23;4.17;;;10.50;99.90;;;;;;967417;146;27407;-82
2023/12/12 06:10:04;;;;;;;9.83;3.80;;;10.40;99.90;;;;;;966591;148;27291;-84
2023/12/12 06:12:30;;;;;;;8.47;3.80;;;10.40;99.90;;;;;;967017;148;27286;-83
2023/12/12 06:14:57;;;;;;;9.53;3.60;;;10.30;99.90;;;;;;966695;146;27352;-81
2023/12/12 06:17:23;;;;;;;8.90;3.30;;;10.30;99.90;;;;;;967249;145;27330;-83
2023/12/12 06:19:50;;;;;;;10.47;3.40;;;10.20;99.90;;;;;;966642;147;27727;-79
2023/12/12 06:22:17;;;;;;;12.17;3.17;;;10.10;99.90;;;;;;966413;148;27361;-78
2023/12/12 06:24:43;;;;;;;10.23;3.60;;;10.10;99.90;;;;;;967060;146;27371;-78
2023/12/12 06:27:10;;;;;;;11.43;3.83;;;10.00;99.90;;;;;;967007;148;27314;-78
2023/12/12 06:29:36;;;;;;;12.83;3.67;;;10.00;99.90;;;;;;966963;148;27326;-78
2023/12/12 06:32:03;;;;;;;10.23;3.70;;;10.00;99.90;;;;;;966534;147;28371;-78
2023/12/12 06:34:29;;;;;;;11.90;3.73;;;10.00;99.90;;;;;;966676;146;27360;-84
2023/12/12 06:36:56;;;;;;;10.97;3.10;;;10.00;99.90;;;;;;967241;148;27328;-83
2023/12/12 06:39:23;;;;;;;9.47;3.87;;;10.00;99.90;;;;;;966695;146;27341;-81
2023/12/12 06:41:49;;;;;;;6.37;3.53;;;10.00;99.90;;;;;;967024;146;27346;-83
2023/12/12 06:44:16;;;;;;;10.50;3.60;;;10.10;99.90;;;;;;958694;147;27326;-84
2023/12/12 06:46:42;;;;;;;10.37;3.53;;;10.10;99.90;;;;;;953896;148;27369;-84
2023/12/12 06:49:09;;;;;;;12.10;3.63;;;10.10;99.90;;;;;;955814;148;27766;-83
2023/12/12 06:51:36;;;;;;;8.57;3.93;;;10.10;99.90;;;;;;953359;148;27326;-84
2023/12/12 06:54:03;;;;;;;8.93;4.30;;;10.20;99.90;;;;;;951289;148;27455;-84
2023/12/12 06:56:30;;;;;;;12.90;4.30;;;10.20;99.90;;;;;;956544;147;27264;-84
2023/12/12 06:58:55;;;;;;;8.97;4.10;;;10.20;99.90;;;;;;955631;147;27417;-84
2023/12/12 07:01:22;;;;;;;11.60;4.37;;;10.30;99.90;;;;;;957701;148;27263;-82
2023/12/12 07:03:49;;;;;;;7.97;3.60;;;10.30;99.90;;;;;;954580;148;27468;-84
2023/12/12 07:06:21;;;;;;;14.47;4.87;;;10.30;99.90;;;;;;954244;148;27347;-85
2023/12/12 07:08:47;;;;;;;8.20;4.40;;;10.30;99.90;;;;;;953936;148;27374;-84
2023/12/12 07:11:14;;;;;;;10.27;4.60;;;10.20;99.90;;;;;;954361;148;27391;-81
2023/12/12 07:13:40;;;;;;;8.87;3.60;;;10.20;99.90;;;;;;954226;147;27432;-84
2023/12/12 07:16:10;;;;;;;8.07;3.60;;;10.10;99.90;;;;;;955742;148;27328;-85
2023/12/12 07:18:34;;;;;;;10.03;3.47;;;10.10;99.90;;;;;;956574;148;27314;-84
2023/12/12 07:21:00;;;;;;;9.43;3.20;;;10.00;99.90;;;;;;955934;148;27322;-83
2023/12/12 07:23:27;;;;;;;9.83;3.50;;;9.90;99.90;;;;;;954511;148;27319;-82
2023/12/12 07:25:53;;;;;;;10.43;3.23;;;9.80;99.90;;;;;;952465;148;27754;-80
2023/12/12 07:28:20;;;;;;;11.47;3.37;;;9.80;99.90;;;;;;956736;148;27370;-80
2023/12/12 07:30:47;;;;;;;8.13;3.43;;;9.70;99.90;;;;;;955881;148;27328;-80
2023/12/12 07:33:13;;;;;;;10.50;3.57;;;9.60;99.90;;;;;;957477;148;27446;-80
2023/12/12 07:35:40;;;;;;;9.20;4.03;;;9.50;99.90;;;;;;955785;147;27323;-81
2023/12/12 07:38:07;;;;;;;10.73;3.77;;;9.40;99.90;;;;;;957997;148;27362;-81
2023/12/12 07:40:33;;;;;;;10.67;3.80;;;9.30;99.90;;;;;;956740;148;27402;-80
2023/12/12 07:42:59;;;;;;;11.23;3.90;;;9.30;99.90;;;;;;956616;148;27371;-80
2023/12/12 07:45:26;;;;;;;6.43;3.77;;;9.30;99.90;;;;;;954792;147;27473;-80
2023/12/12 07:47:53;;;;;;;11.50;3.50;;;9.20;99.90;;;;;;956024;148;27347;-80
2023/12/12 07:50:19;;;;;;;12.43;3.80;;;9.20;99.90;;;;;;953083;148;27298;-80
2023/12/12 07:52:47;;;;;;;14.90;4.23;;;9.20;99.90;;;;;;952724;148;27344;-81
2023/12/12 07:55:12;;;;;;;13.47;4.67;;;9.20;99.90;;;;;;954192;148;27358;-81
2023/12/12 07:57:39;;;;;;;9.90;4.17;;;9.30;99.90;;;;;;953865;148;27463;-81
2023/12/12 08:00:10;;;;;;;12.57;4.10;;;9.40;99.90;;;;;;957046;148;27285;-80
2023/12/12 08:02:35;;;;;;;10.40;3.77;;;9.50;99.90;;;;;;955706;147;27397;-81
2023/12/12 08:05:02;;;;;;;9.13;3.73;;;9.50;99.90;;;;;;955049;148;27263;-81
2023/12/12 08:07:28;;;;;;;10.83;3.80;;;9.60;99.90;;;;;;956239;148;27408;-80
2023/12/12 08:09:55;;;;;;;10.47;3.90;;;9.70;99.90;;;;;;955982;148;27408;-80
2023/12/12 08:12:21;;;;;;;10.00;3.80;;;9.80;99.90;;;;;;955985;148;27312;-80
2023/12/12 08:14:48;;;;;;;12.33;4.30;;;9.80;99.90;;;;;;953830;148;27271;-80
2023/12/12 08:17:14;;;;;;;11.00;4.10;;;9.90;99.90;;;;;;954376;148;27280;-80
2023/12/12 08:19:41;;;;;;;8.73;4.17;;;9.90;99.90;;;;;;954496;148;27443;-80
2023/12/12 08:22:08;;;;;;;15.43;4.43;;;10.00;99.90;;;;;;956294;148;27407;-80
2023/12/12 08:24:34;;;;;;;14.00;4.43;;;10.00;99.90;;;;;;952590;148;27348;-83
2023/12/12 08:27:01;;;;;;;11.80;4.77;;;10.10;99.90;;;;;;954544;148;27348;-83
2023/12/12 08:29:27;;;;;;;9.33;4.33;;;10.20;99.90;;;;;;955484;148;27424;-83
2023/12/12 08:31:54;;;;;;;9.67;4.00;;;10.40;99.90;;;;;;955045;147;28301;-83
2023/12/12 08:34:21;;;;;;;11.60;4.33;;;10.50;99.90;;;;;;952469;147;27288;-81
2023/12/12 08:36:47;;;;;;;9.57;4.53;;;10.70;99.90;;;;;;955906;148;27341;-81
2023/12/12 08:39:14;;;;;;;9.63;4.50;;;10.80;99.90;;;;;;958005;148;27331;-81
2023/12/12 08:41:40;;;;;;;9.90;4.60;;;11.00;99.90;;;;;;952314;148;27890;-80
2023/12/12 08:44:07;;;;;;;10.80;4.37;;;11.10;99.90;;;;;;953303;147;27324;-81
2023/12/12 08:46:34;;;;;;;11.13;4.47;;;11.20;99.90;;;;;;953938;148;27263;-81
2023/12/12 08:49:00;;;;;;;11.17;4.80;;;11.20;99.90;;;;;;954905;148;27328;-81
2023/12/12 08:51:27;;;;;;;11.27;4.47;;;11.30;99.90;;;;;;959017;148;27342;-81
2023/12/12 08:53:53;;;;;;;9.33;4.27;;;11.30;99.90;;;;;;954442;148;27255;-83
2023/12/12 08:56:20;;;;;;;12.37;4.30;;;11.30;99.90;;;;;;958296;148;27321;-83
2023/12/12 08:58:48;;;;;;;10.50;3.80;;;11.30;99.90;;;;;;957308;147;27315;-83
2023/12/12 09:01:13;;;;;;;10.00;4.00;;;11.40;99.90;;;;;;956388;148;27332;-83
2023/12/12 09:03:40;;;;;;;8.53;4.70;;;11.40;99.90;;;;;;959091;148;27310;-83
2023/12/12 09:06:06;;;;;;;14.40;6.03;;;11.50;99.90;;;;;;955606;148;27275;-83
2023/12/12 09:08:33;;;;;;;12.63;4.10;;;11.50;99.90;;;;;;956260;147;27390;-83
2023/12/12 09:10:59;;;;;;;9.63;4.30;;;11.50;99.90;;;;;;958235;148;27810;-83
2023/12/12 09:13:26;;;;;;;9.33;4.30;;;11.60;99.90;;;;;;956351;148;27340;-83
2023/12/12 09:15:53;;;;;;;9.47;4.00;;;11.60;99.90;;;;;;955405;147;27399;-83
2023/12/12 09:18:19;;;;;;;12.33;4.07;;;11.70;99.90;;;;;;957171;148;27284;-83
2023/12/12 09:20:47;;;;;;;11.13;4.30;;;11.70;99.90;;;;;;956580;148;27224;-83
2023/12/12 09:23:12;;;;;;;7.90;4.08;;;11.70;99.90;;;;;;950608;148;27905;-83
2023/12/12 09:25:39;;;;;;;7.57;3.87;;;11.70;99.90;;;;;;955394;148;27752;-83
2023/12/12 09:28:06;;;;;;;7.77;3.50;;;11.60;99.90;;;;;;958686;147;27271;-83
2023/12/12 09:30:32;;;;;;;8.13;3.57;;;11.60;99.90;;;;;;956403;148;27256;-83
2023/12/12 09:32:59;;;;;;;10.57;4.30;;;11.60;99.90;;;;;;955490;148;27982;-83
2023/12/12 09:35:25;;;;;;;8.73;4.03;;;11.50;99.90;;;;;;956897;147;27351;-83
2023/12/12 09:37:52;;;;;;;11.97;4.10;;;11.50;99.90;;;;;;954859;148;28322;-83
2023/12/12 09:40:18;;;;;;;10.50;4.93;;;11.50;99.90;;;;;;952955;148;27377;-83
2023/12/12 09:42:45;;;;;;;11.63;4.53;;;11.50;99.90;;;;;;953512;148;27389;-83
2023/12/12 09:45:14;;;;;;;12.50;4.70;;;11.50;99.90;;;;;;958162;147;27437;-83
2023/12/12 09:47:44;;;;;;;9.13;4.03;;;11.60;99.90;;;;;;969855;146;27429;-83
2023/12/12 09:50:10;;;;;;;10.10;4.50;;;11.60;99.90;;;;;;970039;146;27255;-81
2023/12/12 09:52:37;;;;;;;9.47;4.23;;;11.60;99.90;;;;;;970303;146;27356;-81
2023/12/12 09:55:06;;;;;;;11.70;3.73;;;11.60;99.90;;;;;;970138;148;27414;-81
2023/12/12 09:57:33;;;;;;;8.47;4.10;;;11.70;99.90;;;;;;970640;147;29568;-81
2023/12/12 09:59:59;;;;;;;13.37;4.70;;;11.70;99.90;;;;;;970591;147;27251;-81
2023/12/12 10:02:33;;;;;;;13.67;4.73;;;11.70;99.90;;;;;;968012;147;27381;-79
2023/12/12 10:04:59;;;;;;;13.17;5.70;;;11.80;99.90;;;;;;969088;147;27403;-81
2023/12/12 10:07:25;;;;;;;10.28;4.22;;;11.80;99.90;;;;;;970129;147;27329;-82
2023/12/12 10:09:51;;;;;;;8.60;4.23;;;11.80;99.90;;;;;;969611;146;27275;-82
2023/12/12 10:12:18;;;;;;;10.08;4.70;;;11.80;99.90;;;;;;969880;147;27368;-82
2023/12/12 10:14:47;;;;;;;8.70;4.23;;;11.90;99.90;;;;;;970154;147;28108;-81
2023/12/12 10:17:11;;;;;;;8.47;3.97;;;11.90;99.90;;;;;;969967;144;27322;-82
2023/12/12 10:19:38;;;;;;;6.85;3.87;;;12.00;99.90;;;;;;969971;147;27322;-82
2023/12/12 10:22:05;;;;;;;10.72;4.08;;;12.00;99.90;;;;;;969213;146;27298;-82
2023/12/12 10:24:31;;;;;;;16.32;4.47;;;12.10;99.90;;;;;;969917;146;27310;-82
2023/12/12 10:26:58;;;;;;;8.85;3.55;;;12.10;99.90;;;;;;969872;146;27318;-80
2023/12/12 10:29:24;;;;;;;7.87;4.00;;;12.20;99.90;;;;;;970147;147;27365;-82
2023/12/12 10:31:51;;;;;;;9.03;3.90;;;12.30;99.90;;;;;;970166;147;27360;-81
2023/12/12 10:34:17;;;;;;;8.05;3.35;;;12.30;99.90;;;;;;969399;146;27381;-81
2023/12/12 10:36:44;;;;;;;10.28;3.70;;;12.40;99.90;;;;;;970311;148;27383;-80
2023/12/12 10:39:12;;;;;;;9.93;3.33;;;12.40;99.90;;;;;;969512;146;27321;-82
2023/12/12 10:41:37;;;;;;;5.77;2.87;;;12.50;99.90;;;;;;969712;146;27301;-82
2023/12/12 10:44:05;;;;;;;8.38;3.08;;;12.60;99.90;;;;;;968548;146;27358;-82
2023/12/12 10:46:31;;;;;;;6.92;3.60;;;12.60;99.90;;;;;;969583;146;27342;-82
2023/12/12 10:48:57;;;;;;;10.00;3.37;;;12.70;99.90;;;;;;970638;147;27311;-81
2023/12/12 10:51:23;;;;;;;7.42;3.30;;;12.70;99.90;;;;;;970146;147;27318;-82
2023/12/12 10:53:51;;;;;;;6.92;2.85;;;12.80;99.90;;;;;;968925;147;27402;-82
2023/12/12 10:56:19;;;;;;;12.17;3.97;;;12.80;99.90;;;;;;969532;146;27251;-79
2023/12/12 10:58:43;;;;;;;8.10;3.37;;;12.90;99.90;;;;;;969604;147;27250;-79
2023/12/12 11:01:10;;;;;;;10.15;3.52;;;12.90;99.90;;;;;;969844;146;27338;-79
2023/12/12 11:03:36;;;;;;;9.00;3.52;;;13.00;99.90;;;;;;969725;146;27410;-79
2023/12/12 11:06:06;;;;;;;9.68;3.42;;;13.00;99.90;;;;;;969547;146;27258;-79
2023/12/12 11:08:32;;;;;;;10.35;3.90;;;13.00;99.90;;;;;;969766;148;27285;-79
2023/12/12 11:11:02;;;;;;;8.00;3.62;;;13.00;99.70;;;;;;969735;147;27466;-79
2023/12/12 11:13:31;;;;;;;9.70;3.33;;;13.10;99.90;;;;;;969132;146;27383;-79
2023/12/12 11:15:58;;;;;;;9.28;3.70;;;13.10;99.60;;;;;;969115;144;27241;-80
2023/12/12 11:18:24;;;;;;;8.65;4.12;;;13.10;99.50;;;;;;970555;144;27269;-80
2023/12/12 11:20:51;;;;;;;8.68;3.40;;;13.10;99.40;;;;;;970021;148;27647;-80
2023/12/12 11:23:42;;;;;;;6.58;3.02;;;13.10;99.40;;;;;;969785;147;27310;-80
2023/12/12 11:26:12;;;;;;;9.68;3.55;;;13.10;99.30;;;;;;969780;146;27470;-80
2023/12/12 11:28:38;;;;;;;9.00;3.60;;;13.10;99.30;;;;;;969178;148;27333;-80
2023/12/12 11:31:05;;;;;;;5.92;3.35;;;13.10;99.40;;;;;;968686;146;27258;-79
2023/12/12 11:33:31;;;;;;;7.83;3.33;;;13.10;99.50;;;;;;970162;147;27275;-80
2023/12/12 11:35:58;;;;;;;9.10;4.13;;;13.10;99.80;;;;;;969239;146;27310;-80
2023/12/12 11:38:33;;;;;;;8.85;3.33;;;13.10;99.90;;;;;;968975;147;27302;-80
2023/12/12 11:41:09;;;;;;;7.85;3.47;;;13.10;99.90;;;;;;969155;148;27315;-80
2023/12/12 11:43:36;;;;;;;8.17;3.40;;;13.10;99.90;;;;;;969494;148;27231;-80
2023/12/12 11:46:20;;;;;;;9.30;3.70;;;13.00;99.90;;;;;;968833;146;27318;-80
2023/12/12 11:48:47;;;;;;;9.20;4.20;;;13.00;99.90;;;;;;943227;148;27313;-80
2023/12/12 11:51:35;;;;;;;8.60;3.47;;;12.90;99.90;;;;;;969998;148;27359;-80
2023/12/12 11:54:07;;;;;;;11.83;3.73;;;12.80;99.90;;;;;;904037;157;27417;-80
2023/12/12 11:56:34;;;;;;;8.83;3.97;;;12.80;99.90;;;;;;903499;158;27488;-80
2023/12/12 11:59:03;;;;;;;9.17;3.43;;;12.70;99.90;;;;;;928576;147;27304;-82
2023/12/12 12:01:30;;;;;;;11.30;3.77;;;12.60;99.90;;;;;;970124;148;27239;-80
2023/12/12 12:03:56;;;;;;;9.28;3.60;;;12.60;99.90;;;;;;969687;147;27274;-80
2023/12/12 12:06:23;;;;;;;7.72;3.47;;;12.50;99.90;;;;;;970394;147;27318;-81
2023/12/12 12:08:50;;;;;;;8.58;3.85;;;12.50;99.90;;;;;;970289;147;27329;-79
2023/12/12 12:11:16;;;;;;;9.10;3.53;;;12.50;99.90;;;;;;969734;145;27215;-80
2023/12/12 12:13:43;;;;;;;5.30;3.00;;;12.40;99.90;;;;;;969842;147;27362;-80
2023/12/12 12:16:09;;;;;;;7.30;3.60;;;12.40;99.90;;;;;;969899;144;27290;-80
2023/12/12 12:18:36;;;;;;;11.35;3.75;;;12.40;99.90;;;;;;970237;148;27328;-80
2023/12/12 12:21:07;;;;;;;8.30;4.20;;;12.40;99.90;;;;;;970334;147;28317;-78
2023/12/12 12:23:32;;;;;;;9.23;3.87;;;12.40;99.90;;;;;;969692;147;27371;-80
2023/12/12 12:26:02;;;;;;;11.38;4.17;;;12.40;99.90;;;;;;969218;147;27410;-83
2023/12/12 12:28:31;;;;;;;7.33;3.83;;;12.40;99.90;;;;;;970231;147;27291;-82
2023/12/12 12:31:00;;;;;;;8.13;3.83;;;12.30;99.90;;;;;;969485;147;27403;-82
2023/12/12 12:33:32;;;;;;;10.88;3.95;;;12.30;99.90;;;;;;970231;147;27378;-82
2023/12/12 12:35:59;;;;;;;7.65;3.52;;;12.30;99.90;;;;;;968946;147;27445;-81
2023/12/12 12:38:25;;;;;;;7.43;3.60;;;12.30;99.90;;;;;;970133;148;27433;-81
2023/12/12 12:40:52;;;;;;;9.80;4.28;;;12.30;99.90;;;;;;969967;147;27343;-81